createdAt,value
2023-01-19T00:01:48.553Z,9.43
2023-01-19T00:04:14.960Z,12.02
2023-01-19T00:06:41.381Z,10.68
2023-01-19T00:09:07.806Z,12.05
2023-01-19T00:11:34.243Z,12.95
2023-01-19T00:14:00.650Z,11.15
2023-01-19T00:16:27.140Z,16.27
2023-01-19T00:18:53.636Z,12.52
2023-01-19T00:21:20.136Z,11.63
2023-01-19T00:23:46.561Z,11.25
2023-01-19T00:26:16.121Z,16.63
2023-01-19T00:28:43.645Z,13.15
2023-01-19T00:31:10.181Z,16.35
2023-01-19T00:33:36.780Z,10.55
2023-01-19T00:36:03.984Z,11.82
2023-01-19T00:38:30.493Z,11.85
2023-01-19T00:40:56.901Z,13.73
2023-01-19T00:43:23.332Z,11.82
2023-01-19T00:45:49.755Z,11.05
2023-01-19T00:48:16.202Z,9.55
2023-01-19T00:50:42.583Z,10.05
2023-01-19T00:53:09.020Z,12.55
2023-01-19T00:55:35.410Z,11.50
2023-01-19T00:58:01.848Z,10.30
2023-01-19T01:00:28.371Z,10.52
2023-01-19T01:02:54.842Z,12.60
2023-01-19T01:05:21.343Z,11.70
2023-01-19T01:07:48.293Z,12.48
2023-01-19T01:10:22.287Z,8.25
2023-01-19T01:12:57.740Z,11.65
2023-01-19T01:15:26.705Z,9.55
2023-01-19T01:17:53.370Z,11.80
2023-01-19T01:20:24.534Z,10.40
2023-01-19T01:22:51.705Z,11.55
2023-01-19T01:25:19.204Z,12.85
2023-01-19T01:27:45.630Z,12.68
2023-01-19T01:30:13.544Z,12.50
2023-01-19T01:32:40.165Z,12.68
2023-01-19T01:35:07.149Z,10.25
2023-01-19T01:37:33.552Z,13.27
2023-01-19T01:39:59.996Z,11.98
2023-01-19T01:42:30.099Z,12.55
2023-01-19T01:44:57.837Z,11.07
2023-01-19T01:47:29.035Z,11.52
2023-01-19T01:50:27.580Z,9.48
2023-01-19T01:53:08.172Z,9.30
2023-01-19T01:55:43.824Z,10.80
2023-01-19T01:58:10.224Z,14.35
2023-01-19T02:00:36.666Z,9.98
2023-01-19T02:03:03.586Z,12.90
2023-01-19T02:05:32.998Z,9.43
2023-01-19T02:08:10.051Z,13.43
2023-01-19T02:10:36.495Z,11.55
2023-01-19T02:13:03.586Z,11.45
2023-01-19T02:15:30.088Z,13.57
2023-01-19T02:17:56.513Z,8.00
2023-01-19T02:20:22.891Z,8.77
2023-01-19T02:22:49.790Z,10.40
2023-01-19T02:25:16.511Z,9.60
2023-01-19T02:27:42.979Z,11.13
2023-01-19T02:30:10.009Z,11.35
2023-01-19T02:32:36.427Z,10.77
2023-01-19T02:35:02.824Z,12.15
2023-01-19T02:37:29.838Z,12.60
2023-01-19T02:39:57.773Z,11.02
2023-01-19T02:42:33.872Z,11.65
2023-01-19T02:45:00.253Z,8.73
2023-01-19T02:47:26.680Z,11.25
2023-01-19T02:50:00.465Z,10.88
2023-01-19T02:52:27.135Z,10.52
2023-01-19T02:55:16.734Z,13.43
2023-01-19T02:57:53.309Z,12.15
2023-01-19T03:01:16.925Z,10.43
2023-01-19T03:04:07.815Z,10.75
2023-01-19T03:06:47.099Z,10.68
2023-01-19T03:09:25.698Z,10.38
2023-01-19T03:11:56.767Z,10.93
2023-01-19T03:14:24.360Z,13.95
2023-01-19T03:16:52.147Z,12.18
2023-01-19T03:19:26.327Z,14.38
2023-01-19T03:22:00.272Z,11.75
2023-01-19T03:24:29.186Z,12.50
2023-01-19T03:26:58.636Z,10.45
2023-01-19T03:29:27.080Z,12.98
2023-01-19T03:31:53.477Z,8.68
2023-01-19T03:34:19.984Z,12.63
2023-01-19T03:36:51.001Z,8.32
2023-01-19T03:39:24.349Z,10.35
2023-01-19T03:41:53.411Z,11.95
2023-01-19T03:44:19.829Z,13.15
2023-01-19T03:46:46.475Z,10.00
2023-01-19T03:49:12.859Z,12.05
2023-01-19T03:51:39.258Z,11.77
2023-01-19T03:54:06.520Z,11.77
2023-01-19T03:56:32.951Z,11.80
2023-01-19T03:58:59.352Z,11.07
2023-01-19T04:01:25.908Z,9.57
2023-01-19T04:03:52.729Z,21.80
2023-01-19T04:06:19.907Z,11.90
2023-01-19T04:08:48.013Z,11.30
2023-01-19T04:11:14.572Z,10.02
2023-01-19T04:13:41.064Z,11.50
2023-01-19T04:16:07.728Z,12.60
2023-01-19T04:18:34.907Z,12.10
2023-01-19T04:21:05.908Z,10.57
2023-01-19T04:23:32.328Z,11.95
2023-01-19T04:26:02.097Z,12.15
2023-01-19T04:28:28.539Z,11.32
2023-01-19T04:30:55.113Z,12.60
2023-01-19T04:33:21.947Z,12.05
2023-01-19T04:35:48.838Z,17.10
2023-01-19T04:38:15.256Z,15.77
2023-01-19T04:40:41.656Z,14.65
2023-01-19T04:43:08.213Z,14.77
2023-01-19T04:45:34.625Z,13.27
2023-01-19T04:48:01.029Z,12.57
2023-01-19T04:50:27.412Z,12.27
2023-01-19T04:52:53.849Z,15.77
2023-01-19T04:55:20.271Z,16.55
2023-01-19T04:57:46.693Z,16.58
2023-01-19T05:00:13.453Z,15.88
2023-01-19T05:02:39.906Z,7.30
2023-01-19T05:05:06.434Z,12.65
2023-01-19T05:07:32.850Z,14.05
2023-01-19T05:09:59.221Z,14.38
2023-01-19T05:12:25.637Z,14.88
2023-01-19T05:14:52.030Z,16.20
2023-01-19T05:17:18.451Z,10.35
2023-01-19T05:19:45.039Z,12.60
2023-01-19T05:22:11.473Z,13.45
2023-01-19T05:24:37.863Z,10.57
2023-01-19T05:27:04.298Z,13.30
2023-01-19T05:29:30.717Z,10.73
2023-01-19T05:31:57.202Z,12.68
2023-01-19T05:34:23.633Z,12.27
2023-01-19T05:36:50.051Z,13.45
2023-01-19T05:39:16.457Z,14.38
2023-01-19T05:41:42.871Z,13.60
2023-01-19T05:44:09.589Z,17.50
2023-01-19T05:46:36.001Z,15.85
2023-01-19T05:49:02.421Z,12.02
2023-01-19T05:51:28.832Z,12.93
2023-01-19T05:53:55.267Z,15.77
2023-01-19T05:56:21.656Z,14.38
2023-01-19T05:58:48.077Z,16.67
2023-01-19T06:01:14.506Z,15.45
2023-01-19T06:03:41.077Z,16.38
2023-01-19T06:06:07.572Z,16.23
2023-01-19T06:08:34.120Z,15.13
2023-01-19T06:11:00.551Z,12.60
2023-01-19T06:13:27.011Z,15.70
2023-01-19T06:15:58.221Z,13.40
2023-01-19T06:18:24.684Z,14.68
2023-01-19T06:20:51.173Z,15.73
2023-01-19T06:23:17.557Z,13.10
2023-01-19T06:25:44.255Z,15.50
2023-01-19T06:28:10.681Z,16.80
2023-01-19T06:30:37.168Z,13.63
2023-01-19T06:33:03.759Z,15.00
2023-01-19T06:35:30.280Z,13.43
2023-01-19T06:37:56.667Z,12.65
2023-01-19T06:40:23.191Z,13.57
2023-01-19T06:42:51.075Z,13.70
2023-01-19T06:45:17.569Z,13.60
2023-01-19T06:47:43.968Z,14.07
2023-01-19T06:50:10.801Z,14.65
2023-01-19T06:52:37.198Z,16.23
2023-01-19T06:55:03.883Z,13.85
2023-01-19T06:57:30.288Z,14.65
2023-01-19T06:59:56.775Z,11.27
2023-01-19T07:02:26.141Z,14.00
2023-01-19T07:04:54.864Z,12.43
2023-01-19T07:07:21.283Z,17.77
2023-01-19T07:09:48.115Z,17.15
2023-01-19T07:12:14.604Z,15.88
2023-01-19T07:14:41.062Z,13.02
2023-01-19T07:17:07.499Z,15.05
2023-01-19T07:19:33.916Z,14.57
2023-01-19T07:22:00.364Z,14.45
2023-01-19T07:24:26.837Z,18.38
2023-01-19T07:26:53.252Z,15.25
2023-01-19T07:29:19.631Z,16.15
2023-01-19T07:31:46.163Z,16.88
2023-01-19T07:34:12.661Z,18.80
2023-01-19T07:36:40.194Z,18.48
2023-01-19T07:39:06.590Z,14.90
2023-01-19T07:41:33.000Z,19.48
2023-01-19T07:43:59.419Z,18.13
2023-01-19T07:46:25.911Z,19.67
2023-01-19T07:48:52.321Z,20.40
2023-01-19T07:51:18.844Z,19.23
2023-01-19T07:53:45.669Z,18.58
2023-01-19T07:56:12.169Z,19.65
2023-01-19T07:58:39.109Z,18.25
2023-01-19T08:01:07.311Z,19.70
2023-01-19T08:03:35.028Z,19.42
2023-01-19T08:06:01.443Z,22.52
2023-01-19T08:08:29.726Z,20.92
2023-01-19T08:10:56.163Z,19.90
2023-01-19T08:13:22.619Z,16.63
2023-01-19T08:15:52.410Z,16.70
2023-01-19T08:18:19.220Z,16.85
2023-01-19T08:20:45.747Z,18.48
2023-01-19T08:23:12.216Z,15.77
2023-01-19T08:25:40.052Z,18.65
2023-01-19T08:28:06.843Z,20.40
2023-01-19T08:30:33.324Z,17.27
2023-01-19T08:33:00.124Z,18.08
2023-01-19T08:35:26.756Z,15.38
2023-01-19T08:37:53.212Z,17.27
2023-01-19T08:40:19.656Z,17.50
2023-01-19T08:42:46.162Z,15.02
2023-01-19T08:45:12.556Z,13.70
2023-01-19T08:47:39.017Z,13.75
2023-01-19T08:50:05.880Z,16.77
2023-01-19T08:52:32.265Z,15.30
2023-01-19T08:54:58.720Z,17.10
2023-01-19T08:57:25.172Z,16.35
2023-01-19T08:59:51.668Z,15.00
2023-01-19T09:02:19.350Z,16.30
2023-01-19T09:04:45.768Z,17.40
2023-01-19T09:07:12.215Z,16.02
2023-01-19T09:09:38.653Z,16.75
2023-01-19T09:12:05.216Z,15.15
2023-01-19T09:14:31.642Z,14.13
2023-01-19T09:16:58.028Z,17.42
2023-01-19T09:19:24.521Z,16.02
2023-01-19T09:21:53.004Z,14.68
2023-01-19T09:24:19.519Z,18.05
2023-01-19T09:26:45.923Z,16.77
2023-01-19T09:29:13.408Z,14.82
2023-01-19T09:31:39.970Z,16.58
2023-01-19T09:34:06.664Z,15.90
2023-01-19T09:36:33.113Z,16.90
2023-01-19T09:38:59.578Z,16.23
2023-01-19T09:41:25.998Z,21.30
2023-01-19T09:43:57.232Z,18.02
2023-01-19T09:46:42.181Z,18.40
2023-01-19T09:49:17.543Z,15.80
2023-01-19T09:51:45.285Z,14.73
2023-01-19T09:54:11.654Z,17.73
2023-01-19T09:56:38.251Z,18.10
2023-01-19T09:59:28.789Z,16.75
2023-01-19T10:02:06.026Z,14.68
2023-01-19T10:04:37.212Z,18.08
2023-01-19T10:07:09.734Z,15.23
2023-01-19T10:10:02.137Z,16.27
2023-01-19T10:12:49.393Z,16.70
2023-01-19T10:15:42.153Z,15.90
2023-01-19T10:18:19.556Z,19.05
2023-01-19T10:20:48.955Z,16.10
2023-01-19T10:24:05.874Z,19.15
2023-01-19T10:26:34.186Z,16.63
2023-01-19T10:29:24.449Z,13.93
2023-01-19T10:32:18.332Z,17.35
2023-01-19T10:34:44.764Z,14.50
2023-01-19T10:37:17.440Z,23.48
2023-01-19T10:39:51.746Z,17.50
2023-01-19T10:42:18.465Z,18.67
2023-01-19T10:44:45.189Z,13.57
2023-01-19T10:47:16.744Z,14.52
2023-01-19T10:49:43.457Z,12.50
2023-01-19T10:52:32.294Z,18.55
2023-01-19T10:54:58.979Z,14.13
2023-01-19T10:57:35.325Z,15.15
2023-01-19T11:00:01.936Z,11.75
2023-01-19T11:02:29.734Z,14.98
2023-01-19T11:05:21.773Z,13.52
2023-01-19T11:07:48.296Z,16.95
2023-01-19T11:10:17.581Z,15.60
2023-01-19T11:13:06.885Z,17.65
2023-01-19T11:15:41.034Z,16.38
2023-01-19T11:18:07.520Z,13.98
2023-01-19T11:21:06.793Z,15.75
2023-01-19T11:23:33.768Z,13.07
2023-01-19T11:26:01.348Z,15.85
2023-01-19T11:28:36.795Z,15.32
2023-01-19T11:31:17.181Z,16.05
2023-01-19T11:33:47.082Z,15.88
2023-01-19T11:36:21.561Z,20.45
2023-01-19T11:38:49.611Z,15.65
2023-01-19T11:41:19.859Z,16.48
2023-01-19T11:43:50.392Z,17.83
2023-01-19T11:46:17.015Z,15.60
2023-01-19T11:48:46.809Z,15.02
2023-01-19T11:51:17.355Z,13.57
2023-01-19T11:53:46.082Z,15.85
2023-01-19T11:56:14.067Z,16.13
2023-01-19T11:58:44.737Z,16.40
2023-01-19T12:01:13.993Z,16.98
2023-01-19T12:03:48.951Z,15.40
2023-01-19T12:06:18.909Z,17.25
2023-01-19T12:11:23.291Z,13.80
2023-01-19T12:13:49.772Z,16.27
2023-01-19T12:16:20.641Z,16.70
2023-01-19T12:18:50.931Z,18.48
2023-01-19T12:21:17.503Z,14.30
2023-01-19T12:24:04.558Z,16.63
2023-01-19T12:26:52.953Z,14.95
2023-01-19T12:29:20.384Z,13.68
2023-01-19T12:31:46.895Z,18.15
2023-01-19T12:34:39.530Z,13.57
2023-01-19T12:37:06.747Z,14.10
2023-01-19T12:39:33.166Z,14.88
2023-01-19T12:42:14.012Z,16.13
2023-01-19T12:44:40.484Z,15.35
2023-01-19T12:47:27.085Z,14.90
2023-01-19T12:50:03.803Z,13.35
2023-01-19T12:52:39.735Z,13.93
2023-01-19T12:55:20.341Z,13.75
2023-01-19T12:58:16.138Z,14.60
2023-01-19T13:00:43.535Z,14.30
2023-01-19T13:03:15.957Z,16.00
2023-01-19T13:05:43.431Z,18.75
2023-01-19T13:08:09.718Z,13.32
2023-01-19T13:11:01.530Z,13.82
2023-01-19T13:14:00.273Z,15.95
2023-01-19T13:16:26.539Z,15.30
2023-01-19T13:19:00.575Z,12.18
2023-01-19T13:21:32.161Z,14.13
2023-01-19T13:24:04.871Z,10.60
2023-01-19T13:26:34.456Z,14.23
2023-01-19T13:29:10.236Z,12.98
2023-01-19T13:31:38.322Z,11.25
2023-01-19T13:34:09.589Z,17.10
2023-01-19T13:36:37.133Z,12.77
2023-01-19T13:41:46.117Z,14.00
2023-01-19T13:44:22.771Z,14.50
2023-01-19T13:46:49.309Z,14.80
2023-01-19T13:49:35.778Z,15.05
2023-01-19T13:52:05.211Z,9.90
2023-01-19T13:54:31.694Z,12.60
2023-01-19T13:56:58.095Z,13.93
2023-01-19T13:59:24.531Z,12.27
2023-01-19T14:01:51.146Z,14.85
2023-01-19T14:04:28.933Z,10.48
2023-01-19T14:06:57.665Z,12.35
2023-01-19T14:09:24.103Z,13.82
2023-01-19T14:12:15.966Z,9.80
2023-01-19T14:14:43.279Z,9.90
2023-01-19T14:17:28.909Z,14.75
2023-01-19T14:19:58.669Z,10.25
2023-01-19T14:22:45.646Z,15.13
2023-01-19T14:25:34.661Z,12.43
2023-01-19T14:28:29.583Z,12.50
2023-01-19T14:31:00.459Z,12.57
2023-01-19T14:33:40.403Z,11.88
2023-01-19T14:36:37.388Z,10.32
2023-01-19T14:39:03.924Z,11.38
2023-01-19T14:41:38.974Z,11.40
2023-01-19T14:44:09.746Z,11.30
2023-01-19T14:46:37.702Z,10.65
2023-01-19T14:49:06.074Z,10.15
2023-01-19T14:51:32.645Z,13.80
2023-01-19T14:54:00.648Z,10.38
2023-01-19T14:56:31.453Z,13.43
2023-01-19T14:58:58.887Z,11.38
2023-01-19T15:01:25.791Z,13.15
2023-01-19T15:03:52.429Z,14.23
2023-01-19T15:06:20.007Z,9.18
2023-01-19T15:08:46.755Z,13.43
2023-01-19T15:11:21.372Z,12.32
2023-01-19T15:13:47.867Z,11.02
2023-01-19T15:16:14.327Z,12.40
2023-01-19T15:18:40.931Z,12.52
2023-01-19T15:21:16.460Z,13.18
2023-01-19T15:23:44.185Z,11.70
2023-01-19T15:26:12.759Z,12.07
2023-01-19T15:28:39.181Z,11.05
2023-01-19T15:31:05.838Z,11.77
2023-01-19T15:33:32.725Z,11.20
2023-01-19T15:35:59.167Z,9.70
2023-01-19T15:38:25.565Z,14.27
2023-01-19T15:40:52.015Z,12.60
2023-01-19T15:43:18.457Z,11.38
2023-01-19T15:45:54.552Z,14.40
2023-01-19T15:48:21.053Z,11.85
2023-01-19T15:50:47.479Z,11.52
2023-01-19T15:53:23.084Z,8.15
2023-01-19T15:55:50.950Z,9.68
2023-01-19T15:58:17.814Z,10.55
2023-01-19T16:00:44.281Z,11.30
2023-01-19T16:03:10.796Z,10.82
2023-01-19T16:05:42.898Z,9.48
2023-01-19T16:08:11.115Z,11.05
2023-01-19T16:10:40.187Z,6.35
2023-01-19T16:13:06.635Z,12.52
2023-01-19T16:15:34.913Z,10.43
2023-01-19T16:18:01.333Z,10.02
2023-01-19T16:20:27.805Z,8.90
2023-01-19T16:22:56.522Z,8.27
2023-01-19T16:25:24.937Z,9.45
2023-01-19T16:27:51.361Z,9.68
2023-01-19T16:30:18.022Z,8.98
2023-01-19T16:32:44.607Z,9.25
2023-01-19T16:35:11.109Z,6.97
2023-01-19T16:37:37.514Z,8.32
2023-01-19T16:40:04.362Z,7.10
2023-01-19T16:42:30.791Z,8.23
2023-01-19T16:44:57.219Z,9.20
2023-01-19T16:47:23.711Z,11.52
2023-01-19T16:49:50.284Z,8.63
2023-01-19T16:52:16.884Z,8.15
2023-01-19T16:54:43.505Z,5.70
2023-01-19T16:57:10.119Z,7.40
2023-01-19T16:59:36.643Z,9.60
2023-01-19T17:02:03.309Z,8.02
2023-01-19T17:04:29.764Z,6.68
2023-01-19T17:06:56.274Z,7.60
2023-01-19T17:09:22.701Z,6.20
2023-01-19T17:11:49.144Z,9.68
2023-01-19T17:14:17.367Z,11.45
2023-01-19T17:16:43.875Z,5.10
2023-01-19T17:19:13.694Z,9.93
2023-01-19T17:21:40.125Z,6.63
2023-01-19T17:24:06.848Z,5.57
2023-01-19T17:26:33.235Z,10.60
2023-01-19T17:29:00.879Z,7.72
2023-01-19T17:31:27.550Z,7.22
2023-01-19T17:33:54.052Z,7.70
2023-01-19T17:36:22.539Z,10.07
2023-01-19T17:38:49.671Z,6.68
2023-01-19T17:41:20.462Z,4.90
2023-01-19T17:43:47.030Z,5.57
2023-01-19T17:46:13.578Z,6.35
2023-01-19T17:48:40.026Z,6.15
2023-01-19T17:51:10.801Z,5.25
2023-01-19T17:53:37.987Z,3.53
2023-01-19T17:56:09.504Z,3.83
2023-01-19T17:58:35.963Z,5.18
2023-01-19T18:01:22.204Z,4.22
2023-01-19T18:03:48.755Z,5.00
2023-01-19T18:06:15.219Z,2.67
2023-01-19T18:08:43.482Z,9.77
2023-01-19T18:11:10.385Z,4.18
2023-01-19T18:13:37.067Z,3.17
2023-01-19T18:16:08.502Z,4.03
2023-01-19T18:18:35.435Z,4.28
2023-01-19T18:21:03.108Z,5.15
2023-01-19T18:23:29.524Z,3.60
2023-01-19T18:26:06.847Z,6.72
2023-01-19T18:28:33.323Z,4.32
2023-01-19T18:30:59.935Z,3.88
2023-01-19T18:33:26.518Z,3.33
2023-01-19T18:35:53.184Z,6.95
2023-01-19T18:38:19.679Z,4.55
2023-01-19T18:40:46.116Z,6.60
2023-01-19T18:43:12.583Z,4.28
2023-01-19T18:45:39.085Z,3.38
2023-01-19T18:48:05.889Z,6.63
2023-01-19T18:50:32.399Z,4.65
2023-01-19T18:52:58.896Z,2.00
2023-01-19T18:55:25.341Z,7.68
2023-01-19T18:57:51.744Z,3.63
2023-01-19T19:00:18.670Z,3.25
2023-01-19T19:02:45.076Z,2.63
2023-01-19T19:05:11.578Z,5.40
2023-01-19T19:07:38.089Z,7.82
2023-01-19T19:10:05.504Z,3.30
2023-01-19T19:12:32.502Z,3.38
2023-01-19T19:14:59.058Z,5.03
2023-01-19T19:17:25.552Z,3.90
2023-01-19T19:19:52.206Z,3.00
2023-01-19T19:22:18.602Z,5.80
2023-01-19T19:24:45.024Z,2.70
2023-01-19T19:27:11.442Z,8.32
2023-01-19T19:29:37.944Z,4.10
2023-01-19T19:32:04.616Z,4.30
2023-01-19T19:34:31.044Z,7.53
2023-01-19T19:36:59.728Z,3.80
2023-01-19T19:41:53.716Z,2.47
2023-01-19T19:44:20.132Z,2.78
2023-01-19T19:46:46.607Z,2.90
2023-01-19T19:49:13.036Z,2.22
2023-01-19T19:51:39.475Z,1.48
2023-01-19T19:54:05.890Z,3.53
2023-01-19T19:56:32.353Z,2.03
2023-01-19T19:58:58.859Z,2.10
2023-01-19T20:01:28.073Z,2.67
2023-01-19T20:03:56.592Z,3.38
2023-01-19T20:06:24.185Z,5.75
2023-01-19T20:08:51.664Z,5.18
2023-01-19T20:11:20.769Z,2.60
2023-01-19T20:13:47.200Z,6.50
2023-01-19T20:16:17.834Z,6.85
2023-01-19T20:18:45.024Z,3.45
2023-01-19T20:21:13.277Z,2.80
2023-01-19T20:23:42.701Z,3.05
2023-01-19T20:26:09.878Z,3.20
2023-01-19T20:28:36.588Z,6.53
2023-01-19T20:31:26.137Z,5.07
2023-01-19T20:33:52.787Z,2.88
2023-01-19T20:36:19.248Z,5.68
2023-01-19T20:38:45.693Z,2.70
2023-01-19T20:41:12.270Z,4.20
2023-01-19T20:43:38.693Z,2.05
2023-01-19T20:46:05.320Z,3.92
2023-01-19T20:48:31.797Z,3.60
2023-01-19T20:51:05.287Z,3.22
2023-01-19T20:53:32.962Z,3.60
2023-01-19T20:56:05.945Z,3.78
2023-01-19T20:58:32.905Z,4.95
2023-01-19T21:00:59.401Z,3.95
2023-01-19T21:03:25.897Z,6.78
2023-01-19T21:05:54.476Z,2.28
2023-01-19T21:08:20.919Z,2.75
2023-01-19T21:10:47.347Z,6.20
2023-01-19T21:13:13.788Z,3.95
2023-01-19T21:15:40.218Z,4.55
2023-01-19T21:18:06.649Z,5.25
2023-01-19T21:20:33.083Z,6.13
2023-01-19T21:22:59.483Z,6.88
2023-01-19T21:25:25.962Z,6.75
2023-01-19T21:27:52.778Z,4.60
2023-01-19T21:30:19.309Z,2.47
2023-01-19T21:32:45.770Z,3.80
2023-01-19T21:35:12.493Z,5.43
2023-01-19T21:37:39.073Z,7.95
2023-01-19T21:40:06.255Z,2.83
2023-01-19T21:42:32.679Z,3.35
2023-01-19T21:44:59.124Z,2.53
2023-01-19T21:47:25.595Z,6.63
2023-01-19T21:49:52.172Z,4.13
2023-01-19T21:52:18.803Z,4.43
2023-01-19T21:54:45.328Z,2.25
2023-01-19T21:57:11.873Z,3.67
2023-01-19T21:59:38.365Z,5.43
2023-01-19T22:02:06.912Z,4.25
2023-01-19T22:04:33.556Z,3.83
2023-01-19T22:06:59.981Z,5.47
2023-01-19T22:09:26.395Z,3.97
2023-01-19T22:11:52.833Z,7.93
2023-01-19T22:14:19.263Z,4.80
2023-01-19T22:16:45.797Z,5.03
2023-01-19T22:19:12.308Z,4.85
2023-01-19T22:21:38.771Z,3.65
2023-01-19T22:24:07.832Z,2.20
2023-01-19T22:26:34.571Z,5.70
2023-01-19T22:29:01.267Z,4.80
2023-01-19T22:31:28.507Z,2.35
2023-01-19T22:33:55.161Z,1.90
2023-01-19T22:36:25.981Z,4.13
2023-01-19T22:38:56.553Z,4.63
2023-01-19T22:41:24.768Z,2.85
2023-01-19T22:43:52.868Z,3.80
2023-01-19T22:46:20.042Z,4.63
2023-01-19T22:48:47.457Z,6.15
2023-01-19T22:51:14.134Z,7.50
2023-01-19T22:53:40.541Z,7.53
2023-01-19T22:56:17.899Z,4.43
2023-01-19T22:58:44.661Z,5.75
2023-01-19T23:01:18.626Z,6.13
2023-01-19T23:03:45.195Z,5.32
2023-01-19T23:06:13.161Z,3.30
2023-01-19T23:08:39.765Z,5.15
2023-01-19T23:11:17.168Z,3.13
2023-01-19T23:13:43.737Z,4.68
2023-01-19T23:16:10.333Z,2.97
2023-01-19T23:18:36.755Z,3.33
2023-01-19T23:21:13.153Z,6.05
2023-01-19T23:23:39.601Z,3.33
2023-01-19T23:26:07.987Z,3.05
2023-01-19T23:28:34.585Z,6.03
2023-01-19T23:31:01.189Z,3.70
2023-01-19T23:33:27.666Z,3.70
2023-01-19T23:35:56.853Z,3.13
2023-01-19T23:38:23.302Z,3.92
2023-01-19T23:40:49.936Z,3.90
2023-01-19T23:43:16.405Z,3.08
2023-01-19T23:45:42.835Z,4.47
2023-01-19T23:48:09.329Z,2.67
2023-01-19T23:50:39.464Z,3.00
2023-01-19T23:53:05.893Z,3.72
2023-01-19T23:55:32.312Z,9.85
2023-01-19T23:57:58.688Z,5.82
